LIRF/FCO METAR and TAF weather

Enter ICAO airport designator
Station Type Date Time Source
LIRF METAR 2020/10/29 17:20 UTC NOAA

LIRF 291720Z 09003KT CAVOK 16/14 Q1019 NOSIG


Station Type Date Time Source
LIRF Decoded METAR 2020/10/29 17:20 UTC NOAA

Roma Fiumicino, Italy (LIRF) 41-48N 012-14E 3M
Oct 29, 2020 - 01:20 PM EDT / 2020.10.29 1720 UTC
Wind: from the E (090 degrees) at 3 MPH (3 KT):0
Visibility: greater than 7 mile(s):0
Temperature: 60 F (16 C)
Dew Point: 57 F (14 C)
Relative Humidity: 87%
Pressure (altimeter): 30.09 in. Hg (1019 hPa)
ob: LIRF 291720Z 09003KT CAVOK 16/14 Q1019 NOSIG
cycle: 17

Station Type Date Time Source
LIRF TAF 2020/10/29 18:21 UTC NOAA

TAF LIRF 291700Z 2918/3024 08006KT CAVOK

Example: see airport list